Time;durP1;ratioP1;P1;durP2;ratioP2;P2;SDS_P1;SDS_P2;PMS_P1;PMS_P2;Temp;Humidity;BMP_temperature;BMP_pressure;BME280_temperature;BME280_humidity;BME280_pressure;Samples;Min_cycle;Max_cycle;Signal;HPM_P1;HPM_P2
2021/08/28 00:00:58;;;;;;;8.77;2.95;;;15.60;89.60;;;;;;5032227;28;20025;-86
2021/08/28 00:03:23;;;;;;;14.48;3.10;;;15.60;89.60;;;;;;5031113;28;20020;-86
2021/08/28 00:05:50;;;;;;;11.90;3.40;;;15.60;89.60;;;;;;5049182;28;20032;-86
2021/08/28 00:08:16;;;;;;;8.18;3.20;;;15.60;89.70;;;;;;5033585;28;20024;-87
2021/08/28 00:10:43;;;;;;;8.27;2.95;;;15.60;89.80;;;;;;5051629;28;20109;-86
2021/08/28 00:13:10;;;;;;;11.15;3.08;;;15.50;89.80;;;;;;5048033;28;20024;-86
2021/08/28 00:15:35;;;;;;;9.18;3.08;;;15.50;89.90;;;;;;5065683;28;20169;-85
2021/08/28 00:18:01;;;;;;;11.25;3.15;;;15.60;90.00;;;;;;5047633;28;20096;-86
2021/08/28 00:20:27;;;;;;;14.15;3.20;;;15.60;90.00;;;;;;5047275;28;20029;-86
2021/08/28 00:22:53;;;;;;;9.48;3.25;;;15.50;90.00;;;;;;5066641;28;20095;-86
2021/08/28 00:25:19;;;;;;;6.18;3.05;;;15.60;90.10;;;;;;5031443;28;20116;-86
2021/08/28 00:27:44;;;;;;;12.20;3.60;;;15.60;90.20;;;;;;5049125;28;20123;-86
2021/08/28 00:30:12;;;;;;;16.10;3.88;;;15.60;90.30;;;;;;5049500;28;20664;-86
2021/08/28 00:32:38;;;;;;;14.73;3.92;;;15.60;90.40;;;;;;5048525;28;20078;-86
2021/08/28 00:35:06;;;;;;;15.32;3.58;;;15.60;90.40;;;;;;5048806;28;20035;-85
2021/08/28 00:37:31;;;;;;;13.52;3.67;;;15.70;90.60;;;;;;5045797;28;20064;-86
2021/08/28 00:39:57;;;;;;;11.73;3.97;;;15.70;90.60;;;;;;5045586;28;20060;-86
2021/08/28 00:42:23;;;;;;;10.68;3.08;;;15.70;90.60;;;;;;5030224;28;20025;-87
2021/08/28 00:44:49;;;;;;;14.98;3.80;;;15.70;90.60;;;;;;5047410;28;20021;-86
2021/08/28 00:47:16;;;;;;;11.20;3.35;;;15.80;90.70;;;;;;5030066;28;20025;-86
2021/08/28 00:49:42;;;;;;;10.82;4.13;;;15.80;90.70;;;;;;5033321;28;20021;-87
2021/08/28 00:52:08;;;;;;;10.48;3.80;;;15.80;90.70;;;;;;5034698;28;20027;-86
2021/08/28 00:54:34;;;;;;;11.38;4.10;;;15.80;90.70;;;;;;5046543;28;20024;-86
2021/08/28 00:57:01;;;;;;;13.45;4.18;;;15.80;90.80;;;;;;5047292;28;20717;-86
2021/08/28 00:59:27;;;;;;;9.70;3.45;;;15.80;90.80;;;;;;5030204;28;20043;-86
2021/08/28 01:01:53;;;;;;;11.65;3.80;;;15.80;90.80;;;;;;5029344;28;20579;-86
2021/08/28 01:04:20;;;;;;;10.23;4.05;;;15.80;90.80;;;;;;5047999;28;20033;-86
2021/08/28 01:07:10;;;;;;;15.35;3.75;;;15.90;90.90;;;;;;5048354;28;20044;-86
2021/08/28 01:09:39;;;;;;;9.77;3.40;;;15.90;90.90;;;;;;5047011;28;20031;-85
2021/08/28 01:12:15;;;;;;;7.55;3.38;;;15.90;90.90;;;;;;5047039;28;20396;-86
2021/08/28 01:14:44;;;;;;;14.35;3.58;;;15.90;90.90;;;;;;5066483;28;20024;-86
2021/08/28 01:17:13;;;;;;;11.30;3.92;;;15.80;90.80;;;;;;5047180;28;20025;-86
2021/08/28 01:19:47;;;;;;;11.60;4.10;;;15.80;90.90;;;;;;5046536;28;20389;-86
2021/08/28 01:22:18;;;;;;;11.73;4.00;;;15.80;90.90;;;;;;5073052;28;20481;-86
2021/08/28 01:24:47;;;;;;;12.82;3.90;;;15.80;91.00;;;;;;5045946;28;20044;-86
2021/08/28 01:27:35;;;;;;;16.65;5.07;;;15.80;91.00;;;;;;5045949;28;20029;-86
2021/08/28 01:30:01;;;;;;;16.90;4.90;;;15.80;91.10;;;;;;5047203;28;20020;-86
2021/08/28 01:32:28;;;;;;;11.60;4.22;;;15.80;91.10;;;;;;5047872;28;20021;-85
2021/08/28 01:34:57;;;;;;;13.57;4.07;;;15.80;91.10;;;;;;5047539;28;20032;-86
2021/08/28 01:37:23;;;;;;;12.63;3.67;;;15.80;91.10;;;;;;5045974;28;20025;-86
2021/08/28 01:39:50;;;;;;;8.70;4.05;;;15.70;91.10;;;;;;5033920;28;20016;-86
2021/08/28 01:42:16;;;;;;;14.05;4.25;;;15.80;91.20;;;;;;5018118;28;20552;-86
2021/08/28 01:44:47;;;;;;;8.65;4.18;;;15.80;91.20;;;;;;5057564;28;20428;-86
2021/08/28 01:47:18;;;;;;;10.85;4.60;;;15.80;91.30;;;;;;5057404;28;20020;-87
2021/08/28 01:49:46;;;;;;;10.02;3.90;;;15.80;91.30;;;;;;5059490;28;20099;-86
2021/08/28 01:52:13;;;;;;;10.65;4.05;;;15.80;91.30;;;;;;5056637;28;20019;-86
2021/08/28 01:54:38;;;;;;;14.68;4.53;;;15.80;91.30;;;;;;5019570;28;20021;-86
2021/08/28 01:57:04;;;;;;;13.52;4.85;;;15.80;91.30;;;;;;5058966;28;20947;-86
2021/08/28 01:59:31;;;;;;;13.73;5.13;;;15.80;91.30;;;;;;5035201;28;20032;-85
2021/08/28 02:01:56;;;;;;;12.60;5.13;;;15.90;91.30;;;;;;5000389;28;21410;-84
2021/08/28 02:04:22;;;;;;;14.00;4.93;;;15.80;91.30;;;;;;5017044;28;20055;-86
2021/08/28 02:07:07;;;;;;;11.48;4.70;;;15.90;91.40;;;;;;5033868;28;20029;-86
2021/08/28 02:09:39;;;;;;;15.23;5.40;;;15.80;91.50;;;;;;5034304;28;20028;-86
2021/08/28 02:12:38;;;;;;;17.00;5.55;;;15.80;91.50;;;;;;5031982;28;20032;-86
2021/08/28 02:15:25;;;;;;;13.55;4.72;;;15.80;91.60;;;;;;5003155;28;20050;-86
2021/08/28 02:17:56;;;;;;;11.93;4.75;;;15.80;91.70;;;;;;5033165;28;20048;-86
2021/08/28 02:20:26;;;;;;;12.20;5.30;;;15.80;91.60;;;;;;5033453;28;20359;-86
2021/08/28 02:22:56;;;;;;;13.80;5.10;;;15.80;91.60;;;;;;5033134;28;20427;-86
2021/08/28 02:25:30;;;;;;;12.82;4.97;;;15.80;91.60;;;;;;5017255;28;20067;-86
2021/08/28 02:28:07;;;;;;;12.50;4.57;;;15.80;91.60;;;;;;5054422;28;20508;-86
2021/08/28 02:30:35;;;;;;;16.20;5.18;;;15.80;91.70;;;;;;5033275;28;20374;-86
2021/08/28 02:33:05;;;;;;;13.75;5.03;;;15.80;91.70;;;;;;5016873;28;20044;-86
2021/08/28 02:35:33;;;;;;;11.70;5.40;;;15.80;91.70;;;;;;5034789;28;20020;-86
2021/08/28 02:38:00;;;;;;;16.17;5.30;;;15.80;91.70;;;;;;5057837;28;20037;-86
2021/08/28 02:40:27;;;;;;;13.13;5.60;;;15.90;91.70;;;;;;5045118;28;20667;-86
2021/08/28 02:42:54;;;;;;;12.95;5.43;;;15.90;91.70;;;;;;5031445;28;20078;-86
2021/08/28 02:45:26;;;;;;;13.98;4.95;;;15.90;91.70;;;;;;5050200;28;20029;-86
2021/08/28 02:47:52;;;;;;;11.95;4.95;;;15.90;91.70;;;;;;5049705;28;20039;-86
2021/08/28 02:50:19;;;;;;;11.77;5.43;;;15.90;91.70;;;;;;5050215;28;20029;-86
2021/08/28 02:52:48;;;;;;;10.75;5.47;;;15.80;91.70;;;;;;5048319;28;20029;-86
2021/08/28 02:55:15;;;;;;;18.27;6.05;;;15.90;91.70;;;;;;5065976;28;20024;-86
2021/08/28 02:57:45;;;;;;;12.05;4.55;;;15.90;91.70;;;;;;5049325;28;20534;-85
2021/08/28 03:00:12;;;;;;;15.02;5.15;;;15.90;91.70;;;;;;5067924;28;20025;-85
2021/08/28 03:02:38;;;;;;;16.17;4.90;;;15.90;91.70;;;;;;5043292;28;20036;-86
2021/08/28 03:05:10;;;;;;;13.75;4.78;;;15.80;91.70;;;;;;5050504;28;20040;-86
2021/08/28 03:07:36;;;;;;;15.15;5.30;;;15.80;91.70;;;;;;5076244;28;20024;-86
2021/08/28 03:10:04;;;;;;;14.02;5.35;;;15.80;91.70;;;;;;5067963;28;20365;-86
2021/08/28 03:12:29;;;;;;;14.43;5.32;;;15.80;91.80;;;;;;5049177;28;20040;-86
2021/08/28 03:14:55;;;;;;;12.77;5.25;;;15.80;91.80;;;;;;5051962;28;20536;-86
2021/08/28 03:17:22;;;;;;;12.65;5.60;;;15.80;91.80;;;;;;5047908;28;20428;-86
2021/08/28 03:19:49;;;;;;;10.15;5.07;;;15.80;91.80;;;;;;5031809;28;20025;-85
2021/08/28 03:22:19;;;;;;;17.55;5.78;;;15.80;91.80;;;;;;5033366;28;20043;-86
2021/08/28 03:24:48;;;;;;;15.10;5.90;;;15.80;91.90;;;;;;5046988;28;20051;-86
2021/08/28 03:27:15;;;;;;;14.88;5.85;;;15.80;91.90;;;;;;5049924;28;20474;-85
2021/08/28 03:29:43;;;;;;;13.93;6.25;;;15.80;91.90;;;;;;5048553;28;20036;-86
2021/08/28 03:32:09;;;;;;;17.40;5.78;;;15.80;91.80;;;;;;5048986;28;20044;-86
2021/08/28 03:34:35;;;;;;;12.93;5.50;;;15.80;91.80;;;;;;5039969;28;20477;-86
2021/08/28 03:37:01;;;;;;;13.73;5.72;;;15.80;91.90;;;;;;5047553;28;20033;-86
2021/08/28 03:39:27;;;;;;;13.00;5.22;;;15.80;92.00;;;;;;5031477;28;20409;-86
2021/08/28 03:41:53;;;;;;;16.08;6.43;;;15.80;92.00;;;;;;5029186;28;20017;-86
2021/08/28 03:44:19;;;;;;;14.18;6.20;;;15.80;92.00;;;;;;5030370;28;20492;-86
2021/08/28 03:46:46;;;;;;;12.35;4.97;;;15.80;92.00;;;;;;5031484;28;20029;-86
2021/08/28 03:49:12;;;;;;;14.20;6.53;;;15.80;92.10;;;;;;5030994;28;20405;-86
2021/08/28 03:51:38;;;;;;;21.25;6.35;;;15.80;92.10;;;;;;5030489;28;20036;-86
2021/08/28 03:54:04;;;;;;;13.05;5.10;;;15.90;92.10;;;;;;5048968;28;20120;-86
2021/08/28 03:56:29;;;;;;;11.00;6.20;;;15.80;92.10;;;;;;5031379;28;20470;-86
2021/08/28 03:58:55;;;;;;;10.38;5.50;;;15.90;92.10;;;;;;5033190;28;20542;-86
2021/08/28 04:01:21;;;;;;;16.27;6.75;;;15.90;92.10;;;;;;5031031;28;20021;-85
2021/08/28 04:03:47;;;;;;;13.55;6.68;;;15.90;92.10;;;;;;5030491;28;20078;-85
2021/08/28 04:06:13;;;;;;;14.00;5.60;;;15.90;92.20;;;;;;5048259;28;20482;-85
2021/08/28 04:08:38;;;;;;;15.75;7.32;;;16.00;92.30;;;;;;5000764;28;20033;-85
2021/08/28 04:11:04;;;;;;;14.85;6.93;;;16.00;92.30;;;;;;5028703;28;20040;-85
2021/08/28 04:13:30;;;;;;;14.48;6.75;;;16.00;92.30;;;;;;5031009;28;20486;-85
2021/08/28 04:15:55;;;;;;;20.58;7.03;;;16.00;92.30;;;;;;5029272;28;20591;-85
2021/08/28 04:18:21;;;;;;;15.02;6.20;;;16.00;92.40;;;;;;5040358;28;20079;-86
2021/08/28 04:20:47;;;;;;;15.50;5.82;;;16.00;92.40;;;;;;5032188;28;20068;-85
2021/08/28 04:23:13;;;;;;;14.98;5.10;;;16.10;92.40;;;;;;5038511;28;20049;-86
2021/08/28 04:25:38;;;;;;;18.23;5.30;;;16.10;92.40;;;;;;5031255;28;20476;-86
2021/08/28 04:28:05;;;;;;;13.43;5.25;;;16.10;92.40;;;;;;4997337;28;20512;-86
2021/08/28 04:30:32;;;;;;;14.25;6.35;;;16.10;92.40;;;;;;5031334;28;20103;-86
2021/08/28 04:32:58;;;;;;;16.95;5.50;;;16.10;92.40;;;;;;5036076;28;20044;-85
2021/08/28 04:35:23;;;;;;;17.65;6.65;;;16.20;92.40;;;;;;5030024;28;20052;-85
2021/08/28 04:37:49;;;;;;;20.45;7.57;;;16.20;92.40;;;;;;5030084;28;20045;-86
2021/08/28 04:40:15;;;;;;;19.23;8.20;;;16.20;92.40;;;;;;5026792;28;20170;-86
2021/08/28 04:42:40;;;;;;;16.90;7.15;;;16.20;92.50;;;;;;5042591;28;20028;-86
2021/08/28 04:45:07;;;;;;;23.83;11.93;;;16.20;92.50;;;;;;5025769;28;20032;-86
2021/08/28 04:47:33;;;;;;;17.17;9.60;;;16.20;92.60;;;;;;5044809;28;20389;-86
2021/08/28 04:49:58;;;;;;;17.27;8.05;;;16.20;92.60;;;;;;5050659;28;20032;-85
2021/08/28 04:52:24;;;;;;;16.75;8.02;;;16.20;92.60;;;;;;5033707;28;20029;-86
2021/08/28 04:54:50;;;;;;;16.30;6.68;;;16.20;92.60;;;;;;5034548;28;20103;-86
2021/08/28 04:57:16;;;;;;;16.42;6.90;;;16.30;92.60;;;;;;5042643;28;20108;-86
2021/08/28 04:59:41;;;;;;;17.17;7.85;;;16.30;92.60;;;;;;5033379;28;20048;-86
2021/08/28 05:02:07;;;;;;;14.52;6.38;;;16.30;92.70;;;;;;5044181;28;20047;-86
2021/08/28 05:04:32;;;;;;;13.20;6.43;;;16.30;92.70;;;;;;5025446;28;20449;-86
2021/08/28 05:06:58;;;;;;;16.30;6.70;;;16.30;92.70;;;;;;5041361;28;20021;-86
2021/08/28 05:09:24;;;;;;;12.05;5.50;;;16.30;92.70;;;;;;5020515;28;20032;-86
2021/08/28 05:11:50;;;;;;;15.70;6.20;;;16.30;92.70;;;;;;5059052;28;20509;-85
2021/08/28 05:14:16;;;;;;;11.70;6.38;;;16.30;92.70;;;;;;5025457;28;20029;-85
2021/08/28 05:16:41;;;;;;;15.60;6.72;;;16.30;92.80;;;;;;5039987;28;20032;-86
2021/08/28 05:19:07;;;;;;;12.32;5.55;;;16.30;92.80;;;;;;5041849;28;20033;-86
2021/08/28 05:21:33;;;;;;;16.20;7.03;;;16.30;92.80;;;;;;5032386;28;20032;-86
2021/08/28 05:23:58;;;;;;;10.02;5.65;;;16.30;92.80;;;;;;5041334;28;20492;-86
2021/08/28 05:26:24;;;;;;;14.85;6.45;;;16.30;92.80;;;;;;5050565;28;20384;-87
2021/08/28 05:28:50;;;;;;;12.77;6.90;;;16.30;92.80;;;;;;5040665;28;20025;-88
2021/08/28 05:31:16;;;;;;;11.48;6.95;;;16.40;92.90;;;;;;5042745;28;20032;-88
2021/08/28 05:33:42;;;;;;;13.77;6.20;;;16.40;92.80;;;;;;5062199;28;20032;-89
2021/08/28 05:36:07;;;;;;;15.90;7.70;;;16.40;92.80;;;;;;5042324;28;20040;-89
2021/08/28 05:38:33;;;;;;;12.63;7.32;;;16.50;92.80;;;;;;5063136;28;20072;-88
2021/08/28 05:40:59;;;;;;;15.18;7.38;;;16.50;92.80;;;;;;5073340;28;20508;-81
2021/08/28 05:43:24;;;;;;;13.43;7.45;;;16.50;92.80;;;;;;5038526;28;20113;-77
2021/08/28 05:45:50;;;;;;;20.75;6.50;;;16.50;92.70;;;;;;5067873;28;20106;-78
2021/08/28 05:48:16;;;;;;;16.48;6.40;;;16.50;92.70;;;;;;5073627;28;20028;-78
2021/08/28 05:50:41;;;;;;;16.50;6.10;;;16.50;92.70;;;;;;5039384;28;20029;-82
2021/08/28 05:53:07;;;;;;;14.75;6.25;;;16.60;92.70;;;;;;5038538;28;20039;-83
2021/08/28 05:55:33;;;;;;;11.35;5.47;;;16.60;92.70;;;;;;5072990;28;20043;-83
2021/08/28 05:57:58;;;;;;;14.93;6.00;;;16.60;92.60;;;;;;5054950;28;20107;-83
2021/08/28 06:00:24;;;;;;;13.57;5.57;;;16.60;92.60;;;;;;5062323;28;20040;-78
2021/08/28 06:02:50;;;;;;;15.25;6.82;;;16.60;92.60;;;;;;5045584;28;20081;-78
2021/08/28 06:05:15;;;;;;;17.48;6.50;;;16.60;92.60;;;;;;5047123;28;20090;-78
2021/08/28 06:07:41;;;;;;;15.50;6.20;;;16.70;92.60;;;;;;5077578;28;20036;-76
2021/08/28 06:10:07;;;;;;;10.00;5.05;;;16.70;92.50;;;;;;5072205;28;20040;-77
2021/08/28 06:12:35;;;;;;;9.20;5.00;;;16.70;92.40;;;;;;5072774;28;20029;-77
2021/08/28 06:15:00;;;;;;;12.63;6.13;;;16.70;92.40;;;;;;5070960;28;20035;-78
2021/08/28 06:17:26;;;;;;;11.52;5.63;;;16.60;92.30;;;;;;5066246;28;20020;-78
2021/08/28 06:19:52;;;;;;;11.43;5.20;;;16.60;92.30;;;;;;5055940;28;20032;-78
2021/08/28 06:22:18;;;;;;;7.95;5.30;;;16.60;92.30;;;;;;5050664;28;20028;-76
2021/08/28 06:24:43;;;;;;;10.05;5.05;;;16.60;92.40;;;;;;5076216;28;20464;-79
2021/08/28 06:27:09;;;;;;;9.20;4.93;;;16.60;92.40;;;;;;5058565;28;20031;-78
2021/08/28 06:29:36;;;;;;;9.95;5.00;;;16.70;92.30;;;;;;5076435;28;20033;-79
2021/08/28 06:32:03;;;;;;;9.65;4.97;;;16.70;92.30;;;;;;5052746;28;20517;-78
2021/08/28 06:34:29;;;;;;;14.60;5.97;;;16.70;92.30;;;;;;5075806;28;20021;-78
2021/08/28 06:36:55;;;;;;;11.13;6.05;;;16.80;92.30;;;;;;5068541;28;20032;-78
2021/08/28 06:39:20;;;;;;;11.50;5.35;;;16.80;92.20;;;;;;5072154;28;20040;-78
2021/08/28 06:41:47;;;;;;;8.57;4.70;;;16.80;92.10;;;;;;5076706;28;20070;-77
2021/08/28 06:44:13;;;;;;;10.90;5.07;;;16.90;92.10;;;;;;5040925;28;20040;-78
2021/08/28 06:46:39;;;;;;;12.50;5.95;;;16.80;92.10;;;;;;5057505;28;20059;-78
2021/08/28 06:49:05;;;;;;;12.70;5.50;;;16.90;92.10;;;;;;5074619;28;20043;-77
2021/08/28 06:51:31;;;;;;;12.43;5.10;;;16.90;92.00;;;;;;5056925;28;20035;-77
2021/08/28 06:53:57;;;;;;;10.55;5.47;;;16.90;92.00;;;;;;5056513;28;20029;-78
2021/08/28 06:56:23;;;;;;;12.32;5.50;;;16.90;92.00;;;;;;5074927;28;20033;-78
2021/08/28 06:58:48;;;;;;;15.60;5.72;;;17.00;92.00;;;;;;5074223;28;20469;-77
2021/08/28 07:01:14;;;;;;;12.05;4.55;;;17.00;92.00;;;;;;5057002;28;20535;-77
2021/08/28 07:03:40;;;;;;;9.93;5.15;;;17.10;92.00;;;;;;5074725;28;20012;-77
2021/08/28 07:06:06;;;;;;;14.50;5.90;;;17.10;91.90;;;;;;5056987;28;20411;-78
2021/08/28 07:08:31;;;;;;;12.93;5.85;;;17.10;91.90;;;;;;5057084;28;20081;-78
2021/08/28 07:10:57;;;;;;;10.65;5.93;;;17.10;91.90;;;;;;5056875;28;20029;-78
2021/08/28 07:13:23;;;;;;;11.02;6.03;;;17.10;91.90;;;;;;5075889;28;20051;-78
2021/08/28 07:15:49;;;;;;;13.63;6.15;;;17.10;91.90;;;;;;5057095;28;20033;-78
2021/08/28 07:18:15;;;;;;;12.48;5.60;;;17.20;91.80;;;;;;5057005;28;20048;-78
2021/08/28 07:20:41;;;;;;;11.35;5.07;;;17.20;91.80;;;;;;5057258;28;20024;-78
2021/08/28 07:23:07;;;;;;;12.75;5.70;;;17.20;91.80;;;;;;5075312;28;20024;-78
2021/08/28 07:25:39;;;;;;;9.60;5.22;;;17.10;91.80;;;;;;5057742;28;20029;-78
2021/08/28 07:28:06;;;;;;;16.20;5.45;;;17.20;91.90;;;;;;5057495;28;20032;-78
2021/08/28 07:30:32;;;;;;;9.70;5.50;;;17.20;91.80;;;;;;5055996;28;20036;-77
2021/08/28 07:32:57;;;;;;;7.18;4.40;;;17.20;91.80;;;;;;5074965;28;20037;-78
2021/08/28 07:35:23;;;;;;;11.23;5.38;;;17.20;91.70;;;;;;5075270;28;20099;-78
2021/08/28 07:37:49;;;;;;;11.80;5.32;;;17.20;91.70;;;;;;5056958;28;20032;-78
2021/08/28 07:40:14;;;;;;;13.43;5.30;;;17.20;91.70;;;;;;5074989;28;20036;-78
2021/08/28 07:42:40;;;;;;;14.02;5.40;;;17.20;91.70;;;;;;5089118;28;20056;-78
2021/08/28 07:45:06;;;;;;;12.10;4.72;;;17.20;91.70;;;;;;5095366;28;20099;-83
2021/08/28 07:47:32;;;;;;;11.45;5.72;;;17.20;91.70;;;;;;5060689;28;20066;-83
2021/08/28 07:49:58;;;;;;;12.68;5.50;;;17.20;91.80;;;;;;5055698;28;20056;-83
2021/08/28 07:52:23;;;;;;;12.52;5.82;;;17.20;92.10;;;;;;5056989;28;20037;-83
2021/08/28 07:54:49;;;;;;;11.85;4.95;;;17.20;91.80;;;;;;5057133;28;20070;-82
2021/08/28 07:57:14;;;;;;;13.07;5.75;;;17.20;91.80;;;;;;5040555;28;20033;-83
2021/08/28 07:59:40;;;;;;;12.48;5.78;;;17.20;91.80;;;;;;5040493;28;20117;-83
2021/08/28 08:02:06;;;;;;;11.65;5.65;;;17.20;91.70;;;;;;5040026;28;20035;-82
2021/08/28 08:04:31;;;;;;;14.32;5.75;;;17.20;91.70;;;;;;5056121;28;20032;-82
2021/08/28 08:06:57;;;;;;;9.50;5.35;;;17.30;91.60;;;;;;5039944;28;20021;-82
2021/08/28 08:09:22;;;;;;;12.32;5.28;;;17.40;91.60;;;;;;5071848;28;20069;-83
2021/08/28 08:11:48;;;;;;;9.75;5.70;;;17.40;91.50;;;;;;5062914;28;20515;-83
2021/08/28 08:14:14;;;;;;;11.68;5.30;;;17.50;91.40;;;;;;5056855;28;20044;-82
2021/08/28 08:16:39;;;;;;;8.50;4.57;;;17.60;91.00;;;;;;5074636;28;20058;-83
2021/08/28 08:19:05;;;;;;;8.90;4.75;;;17.60;90.90;;;;;;5074421;28;20024;-82
2021/08/28 08:21:31;;;;;;;11.65;5.10;;;17.60;90.80;;;;;;5056783;28;20046;-83
2021/08/28 08:23:57;;;;;;;10.55;4.78;;;17.70;90.80;;;;;;5056926;28;20115;-83
2021/08/28 08:26:24;;;;;;;10.18;4.90;;;17.70;90.80;;;;;;5072648;28;20578;-83
2021/08/28 08:28:49;;;;;;;10.25;4.45;;;17.80;90.70;;;;;;5052788;28;20446;-84
2021/08/28 08:31:15;;;;;;;10.18;4.45;;;17.90;90.70;;;;;;5056023;28;20032;-83
2021/08/28 08:33:40;;;;;;;11.00;4.50;;;17.90;90.60;;;;;;5055978;28;20043;-84
2021/08/28 08:36:06;;;;;;;9.30;4.55;;;17.90;90.40;;;;;;5056261;28;20162;-84
2021/08/28 08:38:32;;;;;;;6.22;4.45;;;17.90;90.40;;;;;;5055961;28;20043;-83
2021/08/28 08:40:58;;;;;;;9.07;4.82;;;17.90;90.40;;;;;;5056094;28;20032;-83
2021/08/28 08:43:24;;;;;;;12.65;4.63;;;17.90;90.60;;;;;;5055683;28;20033;-84
2021/08/28 08:45:50;;;;;;;9.48;4.78;;;17.90;90.60;;;;;;5053443;28;20020;-85
2021/08/28 08:48:16;;;;;;;8.38;4.60;;;17.90;90.60;;;;;;5054730;28;20033;-84
2021/08/28 08:50:44;;;;;;;11.57;5.03;;;18.00;90.60;;;;;;5038492;28;20033;-84
2021/08/28 08:53:12;;;;;;;10.80;4.33;;;18.10;90.50;;;;;;5062921;28;20041;-83
2021/08/28 08:55:38;;;;;;;7.97;4.87;;;18.20;90.30;;;;;;5056281;28;20064;-83
2021/08/28 08:58:04;;;;;;;10.93;4.97;;;18.30;90.00;;;;;;5055389;28;20056;-83
2021/08/28 09:00:29;;;;;;;13.43;4.57;;;18.30;88.70;;;;;;5054323;28;20024;-83
2021/08/28 09:02:55;;;;;;;9.43;3.78;;;18.20;88.50;;;;;;5073094;28;20435;-84
2021/08/28 09:05:21;;;;;;;8.82;4.35;;;18.10;88.50;;;;;;5072353;28;20067;-83
2021/08/28 09:07:46;;;;;;;8.02;4.25;;;18.10;88.80;;;;;;5053652;28;20043;-83
2021/08/28 09:10:12;;;;;;;6.32;4.22;;;18.10;89.20;;;;;;5072092;28;20025;-83
2021/08/28 09:12:40;;;;;;;10.23;4.50;;;18.20;88.90;;;;;;5053818;28;20041;-83
2021/08/28 09:15:08;;;;;;;8.20;3.97;;;18.30;89.20;;;;;;5053728;28;20025;-83
2021/08/28 09:17:34;;;;;;;9.32;4.60;;;18.40;89.00;;;;;;5072234;28;20017;-83
2021/08/28 09:20:01;;;;;;;9.43;4.00;;;18.40;88.10;;;;;;5088133;28;20074;-83
2021/08/28 09:22:32;;;;;;;5.80;3.78;;;18.40;87.90;;;;;;5072225;28;20027;-83
2021/08/28 09:25:04;;;;;;;8.23;4.10;;;18.40;87.50;;;;;;5071474;28;20028;-83
2021/08/28 09:27:43;;;;;;;12.13;4.28;;;18.40;87.90;;;;;;5071354;28;20078;-83
2021/08/28 09:30:17;;;;;;;10.15;4.53;;;18.30;88.40;;;;;;5071383;28;20028;-83
2021/08/28 09:32:55;;;;;;;8.43;4.07;;;18.30;88.70;;;;;;5071948;28;20057;-83
2021/08/28 09:35:23;;;;;;;9.63;4.40;;;18.40;88.70;;;;;;5054288;28;20381;-83
2021/08/28 09:37:55;;;;;;;6.72;4.32;;;18.50;87.90;;;;;;5071420;28;20028;-83
2021/08/28 09:40:25;;;;;;;8.30;4.43;;;18.70;88.50;;;;;;5070420;28;20056;-84
2021/08/28 09:43:00;;;;;;;8.05;4.38;;;19.00;87.80;;;;;;5072353;28;20086;-83
2021/08/28 09:45:26;;;;;;;9.88;4.32;;;19.30;85.80;;;;;;5073162;28;20477;-83
2021/08/28 09:47:54;;;;;;;5.72;3.90;;;19.30;84.30;;;;;;5072364;28;20029;-83
2021/08/28 09:50:44;;;;;;;9.80;4.50;;;19.30;84.00;;;;;;5053695;28;20526;-83
2021/08/28 09:53:12;;;;;;;7.90;4.07;;;19.30;84.40;;;;;;5055236;28;20111;-83
2021/08/28 09:55:40;;;;;;;9.32;4.72;;;19.20;84.40;;;;;;5062884;28;20059;-84
2021/08/28 09:58:08;;;;;;;8.20;4.80;;;19.10;85.70;;;;;;5071610;28;20385;-84
2021/08/28 10:00:40;;;;;;;8.88;4.90;;;19.00;86.40;;;;;;5072729;28;20020;-84
2021/08/28 10:03:06;;;;;;;12.52;5.13;;;19.00;86.90;;;;;;5054578;28;20032;-84
2021/08/28 10:05:34;;;;;;;12.88;5.15;;;19.00;87.40;;;;;;5054402;28;20384;-75
2021/08/28 10:08:02;;;;;;;10.95;5.18;;;19.00;87.80;;;;;;5071661;28;20484;-76
2021/08/28 10:10:30;;;;;;;8.93;5.28;;;19.00;87.20;;;;;;5053791;28;20040;-76
2021/08/28 10:12:57;;;;;;;11.05;4.88;;;19.10;86.80;;;;;;5071119;28;20036;-75
2021/08/28 10:15:23;;;;;;;7.10;4.70;;;19.10;86.70;;;;;;5071149;28;20044;-76
2021/08/28 10:17:50;;;;;;;8.00;4.60;;;19.20;86.60;;;;;;5053515;28;20060;-75
2021/08/28 10:20:18;;;;;;;10.90;5.22;;;19.20;86.60;;;;;;5056667;28;20047;-75
2021/08/28 10:22:44;;;;;;;8.63;4.83;;;19.30;85.30;;;;;;5073170;28;20431;-75
2021/08/28 10:25:12;;;;;;;10.75;5.15;;;19.30;85.30;;;;;;5073181;28;20035;-75
2021/08/28 10:27:40;;;;;;;9.32;4.68;;;19.40;85.00;;;;;;5070232;28;20024;-75
2021/08/28 10:30:07;;;;;;;7.28;5.18;;;19.40;84.80;;;;;;5036945;28;20412;-75
2021/08/28 10:32:34;;;;;;;10.23;5.07;;;19.40;84.40;;;;;;5036917;28;20025;-75
2021/08/28 10:35:00;;;;;;;9.55;5.00;;;19.40;83.20;;;;;;5079541;28;20035;-75
2021/08/28 10:37:26;;;;;;;11.95;5.20;;;19.30;83.00;;;;;;5037120;28;20025;-75
2021/08/28 10:39:52;;;;;;;9.23;4.57;;;19.30;84.00;;;;;;5071483;28;20078;-75
2021/08/28 10:42:20;;;;;;;9.68;4.65;;;19.40;83.40;;;;;;5036753;28;20056;-75
2021/08/28 10:44:50;;;;;;;10.27;5.57;;;19.50;82.00;;;;;;5053297;28;20031;-75
2021/08/28 10:47:22;;;;;;;10.48;4.75;;;19.50;81.40;;;;;;5071285;28;20060;-75
2021/08/28 10:49:50;;;;;;;7.55;4.65;;;19.50;81.10;;;;;;5071027;28;20067;-75
2021/08/28 10:52:22;;;;;;;10.57;4.95;;;19.50;80.70;;;;;;5053542;28;20033;-76
2021/08/28 10:55:04;;;;;;;8.50;4.88;;;19.40;80.30;;;;;;5071037;28;20384;-76
2021/08/28 10:57:30;;;;;;;5.88;4.03;;;19.30;80.90;;;;;;5052832;28;20028;-75
2021/08/28 11:00:14;;;;;;;7.60;4.70;;;19.20;81.00;;;;;;5036660;28;20481;-75
2021/08/28 11:02:56;;;;;;;14.75;4.88;;;19.20;81.40;;;;;;5071202;28;20025;-75
2021/08/28 11:05:30;;;;;;;9.38;4.93;;;19.10;80.90;;;;;;5071002;28;20032;-76
2021/08/28 11:08:15;;;;;;;10.52;4.75;;;19.20;81.50;;;;;;5057877;28;20036;-75
2021/08/28 11:10:41;;;;;;;8.70;4.82;;;19.30;80.90;;;;;;5064667;28;20036;-77
2021/08/28 11:13:07;;;;;;;8.60;4.60;;;19.40;80.90;;;;;;5074498;28;20040;-75
2021/08/28 11:15:32;;;;;;;10.88;4.15;;;19.60;79.90;;;;;;5076035;28;20036;-75
2021/08/28 11:18:01;;;;;;;8.57;4.57;;;19.90;80.70;;;;;;5056372;28;20039;-76
2021/08/28 11:20:32;;;;;;;8.98;4.15;;;20.30;79.30;;;;;;5056596;28;20028;-75
2021/08/28 11:23:01;;;;;;;5.43;3.70;;;20.40;77.90;;;;;;5062291;28;20034;-76
2021/08/28 11:25:35;;;;;;;6.25;4.03;;;20.40;76.50;;;;;;5074491;28;20025;-76
2021/08/28 11:28:03;;;;;;;5.50;3.85;;;20.30;76.50;;;;;;5039676;28;20119;-76
2021/08/28 11:30:47;;;;;;;6.30;4.00;;;20.10;76.00;;;;;;5040050;28;20024;-75
2021/08/28 11:33:23;;;;;;;7.82;4.07;;;20.00;76.90;;;;;;5056831;28;20041;-75
2021/08/28 11:36:03;;;;;;;11.02;4.10;;;20.00;76.20;;;;;;5074223;28;20028;-76
2021/08/28 11:38:50;;;;;;;7.05;3.88;;;20.00;76.00;;;;;;5056504;28;20079;-75
2021/08/28 11:41:26;;;;;;;8.82;4.10;;;20.00;76.50;;;;;;5039816;28;20024;-75
2021/08/28 11:43:54;;;;;;;5.82;3.80;;;20.00;76.50;;;;;;5056447;28;20397;-76
2021/08/28 11:46:27;;;;;;;6.13;3.70;;;20.10;76.60;;;;;;5074105;28;20027;-75
2021/08/28 11:48:54;;;;;;;7.65;4.07;;;20.00;76.20;;;;;;5073928;28;20051;-76
2021/08/28 11:51:25;;;;;;;6.60;4.22;;;20.00;76.60;;;;;;5056676;28;20381;-75
2021/08/28 11:53:53;;;;;;;9.02;4.05;;;20.00;77.00;;;;;;5073846;28;20493;-75
2021/08/28 11:56:21;;;;;;;8.25;4.18;;;19.90;76.30;;;;;;5074216;28;20020;-75
2021/08/28 11:59:03;;;;;;;10.63;3.92;;;19.80;76.70;;;;;;5056047;28;20052;-76
2021/08/28 12:01:31;;;;;;;5.55;3.70;;;19.70;77.50;;;;;;5074330;28;20031;-75
2021/08/28 12:03:58;;;;;;;5.60;3.80;;;19.70;77.80;;;;;;5056051;28;20082;-75
2021/08/28 12:06:25;;;;;;;6.85;3.80;;;19.70;77.40;;;;;;5065295;28;20043;-75
2021/08/28 12:08:52;;;;;;;7.05;3.70;;;19.70;77.20;;;;;;5073794;28;20047;-75
2021/08/28 12:11:18;;;;;;;4.55;3.50;;;19.80;76.70;;;;;;5038672;28;20048;-75
2021/08/28 12:13:48;;;;;;;9.20;4.10;;;19.80;77.00;;;;;;5055457;28;20401;-75
2021/08/28 12:16:27;;;;;;;7.22;4.50;;;19.70;77.50;;;;;;5054665;28;20124;-75
2021/08/28 12:19:18;;;;;;;7.68;4.38;;;19.60;79.30;;;;;;5072970;28;20426;-75
2021/08/28 12:21:48;;;;;;;9.25;4.18;;;19.40;81.00;;;;;;5073759;28;20122;-75
2021/08/28 12:24:24;;;;;;;7.63;4.13;;;19.30;82.90;;;;;;5073238;28;20033;-75
2021/08/28 12:26:51;;;;;;;6.80;4.40;;;19.30;83.80;;;;;;5055198;28;20024;-75
2021/08/28 12:29:44;;;;;;;8.20;4.05;;;19.30;84.20;;;;;;5073529;28;20029;-75
2021/08/28 12:32:10;;;;;;;6.43;4.05;;;19.40;85.10;;;;;;5073120;28;20028;-75
2021/08/28 12:34:38;;;;;;;7.28;4.50;;;19.60;85.40;;;;;;5055173;28;20036;-75
2021/08/28 12:37:06;;;;;;;8.48;4.05;;;19.80;84.50;;;;;;5055328;28;20056;-75
2021/08/28 12:39:34;;;;;;;8.70;4.10;;;20.00;84.20;;;;;;5071710;28;20051;-75
2021/08/28 12:42:01;;;;;;;7.03;3.80;;;20.30;83.30;;;;;;5075119;28;20493;-75
2021/08/28 12:44:30;;;;;;;5.20;3.60;;;20.60;82.10;;;;;;5074977;28;20028;-75